Kaifeng, China
Current Conditions -  °F | °C
As of 8:00 AM on Monday 24 Nov 2014 (Local Time) from ZHCC Reporting Station
Haze Haze  
Wind Chill: 42°   Ceiling: Unl
Heat Index: 46°   Visibility: 1.2mi
Dew Point: 39°   Wind: 9mph
Humidity: 76%   Direction: 10°N
Pressure: 30.27"   Gusts: NA
Location:  34.85°N, 114.35°E
Report Text: ZHCC 240000Z 01004MPS 330V040 2000 HZ NSC 08/04 Q1025 NOSIG
Loading
Personal Weather Stations






























Interactive Weather Map New forecast layout! Learn more

10-Day Weather Forecast

Advertisements
Track Severe Weather on mobile